Mauna Loa — WDC2819 — position and weather

sailwx.info

Track history (hours):
 
Tides and Currents Weather Stations Pressure Air Temp Water Temp Dewpoint Dewpoint Depression Visibility Wind Speed Wind Dir Waves Ship Positions

Mauna Loa

Owner: Salmon Bay Barge Line, Inc., Seattle, WA. More information available from US FCC via Universal Licensing System and Coast Guard Vessel Documentation Center.

Last reported at 2018-Aug-19 15:01 UTC. Time now 2018-Aug-19 15:20 UTC.
Position N 49°08' W 123°13'.

Length 37 m; draft 4.6 m.

Type: Tug. MMSI: 366998090.

Date/timePositionNaut miles runAvg speedWind from/ knotsBaromVisibWave heightAir tempDewpointWater temp
2018-Aug-19 15:01N 49°08' W 123°13'3 5.9
2018-Aug-19 14:30N 49°07' W 123°18'3 5.3
2018-Aug-19 14:00N 49°04' W 123°19'2 4.1
2018-Aug-19 13:30N 49°03' W 123°17'4 7.8
2018-Aug-19 13:00N 48°60' W 123°13'4 7.6
2018-Aug-19 12:30N 48°57' W 123°08'4 7.5
2018-Aug-19 12:00N 48°55' W 123°04'4 7.9
2018-Aug-19 11:30N 48°52' W 122°59'4 7.5
2018-Aug-19 11:00N 48°50' W 122°55'4 7.0
2018-Aug-19 10:25N 48°47' W 122°51'5 7.2
2018-Aug-19 09:46N 48°44' W 122°45'2 6.7
2018-Aug-19 09:28N 48°42' W 122°44'3 6.3
2018-Aug-19 09:00N 48°40' W 122°43'3 6.7
2018-Aug-19 08:31N 48°37' W 122°45'3 6.6
2018-Aug-19 08:00N 48°33' W 122°45'4 7.4
2018-Aug-19 07:31N 48°30' W 122°44'31 7.0
2018-Aug-19 03:04N 47°59' W 122°35'1 7.6
2018-Aug-19 02:55N 47°58' W 122°34'3 7.5
2018-Aug-19 02:31N 47°56' W 122°30'4 8.0
2018-Aug-19 02:01N 47°53' W 122°28'4 8.7
2018-Aug-19 01:31N 47°48' W 122°26'4 8.6
2018-Aug-19 01:00N 47°44' W 122°26'4 8.6
2018-Aug-19 00:30N 47°40' W 122°27'4 7.4
2018-Aug-19 00:00N 47°37' W 122°24'2 3.8
2018-Aug-18 23:30N 47°35' W 122°22'2 4.5
2018-Aug-18 23:00N 47°33' W 122°21'0 0.1
2018-Aug-18 22:04N 47°33' W 122°21'0 0.4
2018-Aug-18 21:58N 47°33' W 122°21'0 0.1
2018-Aug-18 21:26N 47°33' W 122°21'0 0.1
2018-Aug-18 21:00N 47°33' W 122°21'0 0.0
2018-Aug-18 20:30N 47°33' W 122°21'0 0.0
2018-Aug-18 20:00N 47°33' W 122°21'0 0.1
2018-Aug-18 19:30N 47°33' W 122°21'0 0.1
2018-Aug-18 18:54N 47°33' W 122°21'0 0.0
2018-Aug-18 18:30N 47°33' W 122°21'0 0.1
2018-Aug-18 17:59N 47°33' W 122°21'1 1.8
2018-Aug-18 17:30N 47°34' W 122°21'1 1.0
2018-Aug-18 17:00N 47°34' W 122°22'  
2018-Aug-12 16:33N 47°33' W 122°21'0 0.0
2018-Aug-12 16:28N 47°33' W 122°21'0 0.5
2018-Aug-12 16:00N 47°33' W 122°21'0 0.1
2018-Aug-12 15:30N 47°33' W 122°21'2 4.9
2018-Aug-12 15:00N 47°36' W 122°22'1 2.2
2018-Aug-12 14:30N 47°36' W 122°23'2 4.9
2018-Aug-12 14:00N 47°38' W 122°26'2 4.8
2018-Aug-12 13:30N 47°40' W 122°28'2 4.8
2018-Aug-12 13:00N 47°42' W 122°28'3 5.1
2018-Aug-12 12:30N 47°45' W 122°27'3 5.0
2018-Aug-12 12:00N 47°47' W 122°27'2 4.7
2018-Aug-12 11:30N 47°49' W 122°28'2 4.3
2018-Aug-12 11:00N 47°51' W 122°29'2 4.6
2018-Aug-12 10:30N 47°54' W 122°30'3 4.4
2018-Aug-12 09:56N 47°56' W 122°32'2 5.5
2018-Aug-12 09:29N 47°57' W 122°35'3 5.2
2018-Aug-12 08:57N 47°59' W 122°37'38 4.4
2018-Aug-12 00:17N 48°37' W 122°45'15 3.8
2018-Aug-11 20:24N 48°49' W 122°58'3 6.6
2018-Aug-11 19:54N 48°51' W 123°02'3 6.5
2018-Aug-11 19:29N 48°53' W 123°05'3 6.4
2018-Aug-11 19:00N 48°55' W 123°08'4 6.9
2018-Aug-11 18:28N 48°57' W 123°13'3 7.0
2018-Aug-11 18:00N 48°59' W 123°16'4 7.1
2018-Aug-11 17:30N 49°02' W 123°20'3 6.0
2018-Aug-11 17:00N 49°05' W 123°20'4 7.1
2018-Aug-11 16:30N 49°07' W 123°16'3 6.6
2018-Aug-11 16:00N 49°07' W 123°11'4 7.9
2018-Aug-11 15:30N 49°07' W 123°05'3 6.9
2018-Aug-11 15:00N 49°09' W 123°00'0 0.3
2018-Aug-11 14:28N 49°09' W 123°00'0 0.0
2018-Aug-11 13:59N 49°09' W 123°00'0 0.0
2018-Aug-11 13:30N 49°09' W 123°00'0 0.0
2018-Aug-11 13:00N 49°09' W 123°00'0 0.0
2018-Aug-11 12:29N 49°09' W 123°00'0 0.0
2018-Aug-11 12:00N 49°09' W 123°00'0 0.0
2018-Aug-11 11:30N 49°09' W 123°00'0 0.0
2018-Aug-11 11:00N 49°09' W 123°00'0 0.0
2018-Aug-11 10:25N 49°09' W 123°00'0 0.0
2018-Aug-11 10:00N 49°09' W 123°00'0 0.0
2018-Aug-11 09:30N 49°09' W 123°00'0 0.0
2018-Aug-11 09:00N 49°09' W 123°00'0 0.0
2018-Aug-11 07:55N 49°09' W 123°00'0 0.0
2018-Aug-11 07:27N 49°09' W 123°00'0 0.0
2018-Aug-11 06:58N 49°09' W 123°00'0 0.0
2018-Aug-11 06:29N 49°09' W 123°00'0 0.0
2018-Aug-11 05:57N 49°09' W 123°00'0 0.0
2018-Aug-11 05:30N 49°09' W 123°00'0 0.0
2018-Aug-11 04:58N 49°09' W 123°00'0 0.0
2018-Aug-11 04:29N 49°09' W 123°00'0 0.0
2018-Aug-11 04:00N 49°09' W 123°00'0 0.0
2018-Aug-11 03:24N 49°09' W 123°00'0 0.0
2018-Aug-11 03:00N 49°09' W 123°00'0 0.0
2018-Aug-11 02:30N 49°09' W 123°00'0 0.0
2018-Aug-11 01:57N 49°09' W 123°00'0 0.0
2018-Aug-11 01:30N 49°09' W 123°00'0 0.0
2018-Aug-11 01:00N 49°09' W 123°00'0 0.0
2018-Aug-11 00:23N 49°09' W 123°00'0 0.0
2018-Aug-10 23:59N 49°09' W 123°00'0 0.0
2018-Aug-10 22:50N 49°09' W 123°00'0 0.0
2018-Aug-10 16:33N 49°09' W 123°00'0 0.0
2018-Aug-10 16:23N 49°09' W 123°00'0 0.0
2018-Aug-10 15:59N 49°09' W 123°00'0 0.0
2018-Aug-10 14:40N 49°09' W 123°00'0 0.0
2018-Aug-10 14:27N 49°09' W 123°00'0 0.0
2018-Aug-10 14:00N 49°09' W 123°00'0 0.0
2018-Aug-10 13:25N 49°09' W 123°00'0 0.0
2018-Aug-10 13:00N 49°09' W 123°00'0 0.0
2018-Aug-10 12:30N 49°09' W 123°00'0 0.0
2018-Aug-10 12:00N 49°09' W 123°00'0 0.0
2018-Aug-10 11:30N 49°09' W 123°00'0 0.0
2018-Aug-10 11:00N 49°09' W 123°00'0 0.0
2018-Aug-10 10:30N 49°09' W 123°00'0 0.0
2018-Aug-10 10:00N 49°09' W 123°00'0 0.0
2018-Aug-10 09:30N 49°09' W 123°00'0 0.0
2018-Aug-10 09:00N 49°09' W 123°00'0 0.0
2018-Aug-10 08:30N 49°09' W 123°00'0 0.0
2018-Aug-10 08:00N 49°09' W 123°00'0 0.0
2018-Aug-10 07:26N 49°09' W 123°00'0 0.0
2018-Aug-10 06:36N 49°09' W 123°00'0 0.0
2018-Aug-10 06:24N 49°09' W 123°00'0 0.0
2018-Aug-10 05:36N 49°09' W 123°00'0 0.0
2018-Aug-10 05:30N 49°09' W 123°00'0 0.0
2018-Aug-10 04:31N 49°09' W 123°00'0 0.0
2018-Aug-10 04:11N 49°09' W 123°00'0 0.0
2018-Aug-10 04:00N 49°09' W 123°00'0 0.0
2018-Aug-10 03:22N 49°09' W 123°00'0 0.0
2018-Aug-10 03:00N 49°09' W 123°00'0 0.0
2018-Aug-10 02:29N 49°09' W 123°00'0 0.0
2018-Aug-09 20:29N 49°09' W 123°00'0 0.0
2018-Aug-09 20:00N 49°09' W 123°00'0 0.0
2018-Aug-09 19:20N 49°09' W 123°00'0 0.0
2018-Aug-09 19:00N 49°09' W 123°00'0 0.0
2018-Aug-09 18:30N 49°09' W 123°00'0 0.0
2018-Aug-09 17:59N 49°09' W 123°00'0 0.0
2018-Aug-09 15:01N 49°09' W 123°00'  
Track history (hours):
 
Tides and Currents Weather Stations Pressure Air Temp Water Temp Dewpoint Dewpoint Depression Visibility Wind Speed Wind Dir Waves Ship Positions

Mauna Loa

Owner: Salmon Bay Barge Line, Inc., Seattle, WA. More information available from US FCC via Universal Licensing System and Coast Guard Vessel Documentation Center.

Last reported at 2018-Aug-19 15:01 UTC. Time now 2018-Aug-19 15:20 UTC.
Position N 49°08' W 123°13'.

Length 37 m; draft 4.6 m.

Type: Tug. MMSI: 366998090.

Date/timePositionNaut miles runAvg speedWind from/ knotsBaromVisibWave heightAir tempDewpointWater temp
2018-Aug-19 15:01N 49°08' W 123°13'3 5.9
2018-Aug-19 14:30N 49°07' W 123°18'3 5.3
2018-Aug-19 14:00N 49°04' W 123°19'2 4.1
2018-Aug-19 13:30N 49°03' W 123°17'4 7.8
2018-Aug-19 13:00N 48°60' W 123°13'4 7.6
2018-Aug-19 12:30N 48°57' W 123°08'4 7.5
2018-Aug-19 12:00N 48°55' W 123°04'4 7.9
2018-Aug-19 11:30N 48°52' W 122°59'4 7.5
2018-Aug-19 11:00N 48°50' W 122°55'4 7.0
2018-Aug-19 10:25N 48°47' W 122°51'5 7.2
2018-Aug-19 09:46N 48°44' W 122°45'2 6.7
2018-Aug-19 09:28N 48°42' W 122°44'3 6.3
2018-Aug-19 09:00N 48°40' W 122°43'3 6.7
2018-Aug-19 08:31N 48°37' W 122°45'3 6.6
2018-Aug-19 08:00N 48°33' W 122°45'4 7.4
2018-Aug-19 07:31N 48°30' W 122°44'31 7.0
2018-Aug-19 03:04N 47°59' W 122°35'1 7.6
2018-Aug-19 02:55N 47°58' W 122°34'3 7.5
2018-Aug-19 02:31N 47°56' W 122°30'4 8.0
2018-Aug-19 02:01N 47°53' W 122°28'4 8.7
2018-Aug-19 01:31N 47°48' W 122°26'4 8.6
2018-Aug-19 01:00N 47°44' W 122°26'4 8.6
2018-Aug-19 00:30N 47°40' W 122°27'4 7.4
2018-Aug-19 00:00N 47°37' W 122°24'2 3.8
2018-Aug-18 23:30N 47°35' W 122°22'2 4.5
2018-Aug-18 23:00N 47°33' W 122°21'0 0.1
2018-Aug-18 22:04N 47°33' W 122°21'0 0.4
2018-Aug-18 21:58N 47°33' W 122°21'0 0.1
2018-Aug-18 21:26N 47°33' W 122°21'0 0.1
2018-Aug-18 21:00N 47°33' W 122°21'0 0.0
2018-Aug-18 20:30N 47°33' W 122°21'0 0.0
2018-Aug-18 20:00N 47°33' W 122°21'0 0.1
2018-Aug-18 19:30N 47°33' W 122°21'0 0.1
2018-Aug-18 18:54N 47°33' W 122°21'0 0.0
2018-Aug-18 18:30N 47°33' W 122°21'0 0.1
2018-Aug-18 17:59N 47°33' W 122°21'1 1.8
2018-Aug-18 17:30N 47°34' W 122°21'1 1.0
2018-Aug-18 17:00N 47°34' W 122°22'  
2018-Aug-12 16:33N 47°33' W 122°21'0 0.0
2018-Aug-12 16:28N 47°33' W 122°21'0 0.5
2018-Aug-12 16:00N 47°33' W 122°21'0 0.1
2018-Aug-12 15:30N 47°33' W 122°21'2 4.9
2018-Aug-12 15:00N 47°36' W 122°22'1 2.2
2018-Aug-12 14:30N 47°36' W 122°23'2 4.9
2018-Aug-12 14:00N 47°38' W 122°26'2 4.8
2018-Aug-12 13:30N 47°40' W 122°28'2 4.8
2018-Aug-12 13:00N 47°42' W 122°28'3 5.1
2018-Aug-12 12:30N 47°45' W 122°27'3 5.0
2018-Aug-12 12:00N 47°47' W 122°27'2 4.7
2018-Aug-12 11:30N 47°49' W 122°28'2 4.3
2018-Aug-12 11:00N 47°51' W 122°29'2 4.6
2018-Aug-12 10:30N 47°54' W 122°30'3 4.4
2018-Aug-12 09:56N 47°56' W 122°32'2 5.5
2018-Aug-12 09:29N 47°57' W 122°35'3 5.2
2018-Aug-12 08:57N 47°59' W 122°37'38 4.4
2018-Aug-12 00:17N 48°37' W 122°45'15 3.8
2018-Aug-11 20:24N 48°49' W 122°58'3 6.6
2018-Aug-11 19:54N 48°51' W 123°02'3 6.5
2018-Aug-11 19:29N 48°53' W 123°05'3 6.4
2018-Aug-11 19:00N 48°55' W 123°08'4 6.9
2018-Aug-11 18:28N 48°57' W 123°13'3 7.0
2018-Aug-11 18:00N 48°59' W 123°16'4 7.1
2018-Aug-11 17:30N 49°02' W 123°20'3 6.0
2018-Aug-11 17:00N 49°05' W 123°20'4 7.1
2018-Aug-11 16:30N 49°07' W 123°16'3 6.6
2018-Aug-11 16:00N 49°07' W 123°11'4 7.9
2018-Aug-11 15:30N 49°07' W 123°05'3 6.9
2018-Aug-11 15:00N 49°09' W 123°00'0 0.3
2018-Aug-11 14:28N 49°09' W 123°00'0 0.0
2018-Aug-11 13:59N 49°09' W 123°00'0 0.0
2018-Aug-11 13:30N 49°09' W 123°00'0 0.0
2018-Aug-11 13:00N 49°09' W 123°00'0 0.0
2018-Aug-11 12:29N 49°09' W 123°00'0 0.0
2018-Aug-11 12:00N 49°09' W 123°00'0 0.0
2018-Aug-11 11:30N 49°09' W 123°00'0 0.0
2018-Aug-11 11:00N 49°09' W 123°00'0 0.0
2018-Aug-11 10:25N 49°09' W 123°00'0 0.0
2018-Aug-11 10:00N 49°09' W 123°00'0 0.0
2018-Aug-11 09:30N 49°09' W 123°00'0 0.0
2018-Aug-11 09:00N 49°09' W 123°00'0 0.0
2018-Aug-11 07:55N 49°09' W 123°00'0 0.0
2018-Aug-11 07:27N 49°09' W 123°00'0 0.0
2018-Aug-11 06:58N 49°09' W 123°00'0 0.0
2018-Aug-11 06:29N 49°09' W 123°00'0 0.0
2018-Aug-11 05:57N 49°09' W 123°00'0 0.0
2018-Aug-11 05:30N 49°09' W 123°00'0 0.0
2018-Aug-11 04:58N 49°09' W 123°00'0 0.0
2018-Aug-11 04:29N 49°09' W 123°00'0 0.0
2018-Aug-11 04:00N 49°09' W 123°00'0 0.0
2018-Aug-11 03:24N 49°09' W 123°00'0 0.0
2018-Aug-11 03:00N 49°09' W 123°00'0 0.0
2018-Aug-11 02:30N 49°09' W 123°00'0 0.0
2018-Aug-11 01:57N 49°09' W 123°00'0 0.0
2018-Aug-11 01:30N 49°09' W 123°00'0 0.0
2018-Aug-11 01:00N 49°09' W 123°00'0 0.0
2018-Aug-11 00:23N 49°09' W 123°00'0 0.0
2018-Aug-10 23:59N 49°09' W 123°00'0 0.0
2018-Aug-10 22:50N 49°09' W 123°00'0 0.0
2018-Aug-10 16:33N 49°09' W 123°00'0 0.0
2018-Aug-10 16:23N 49°09' W 123°00'0 0.0
2018-Aug-10 15:59N 49°09' W 123°00'0 0.0
2018-Aug-10 14:40N 49°09' W 123°00'0 0.0
2018-Aug-10 14:27N 49°09' W 123°00'0 0.0
2018-Aug-10 14:00N 49°09' W 123°00'0 0.0
2018-Aug-10 13:25N 49°09' W 123°00'0 0.0
2018-Aug-10 13:00N 49°09' W 123°00'0 0.0
2018-Aug-10 12:30N 49°09' W 123°00'0 0.0
2018-Aug-10 12:00N 49°09' W 123°00'0 0.0
2018-Aug-10 11:30N 49°09' W 123°00'0 0.0
2018-Aug-10 11:00N 49°09' W 123°00'0 0.0
2018-Aug-10 10:30N 49°09' W 123°00'0 0.0
2018-Aug-10 10:00N 49°09' W 123°00'0 0.0
2018-Aug-10 09:30N 49°09' W 123°00'0 0.0
2018-Aug-10 09:00N 49°09' W 123°00'0 0.0
2018-Aug-10 08:30N 49°09' W 123°00'0 0.0
2018-Aug-10 08:00N 49°09' W 123°00'0 0.0
2018-Aug-10 07:26N 49°09' W 123°00'0 0.0
2018-Aug-10 06:36N 49°09' W 123°00'0 0.0
2018-Aug-10 06:24N 49°09' W 123°00'0 0.0
2018-Aug-10 05:36N 49°09' W 123°00'0 0.0
2018-Aug-10 05:30N 49°09' W 123°00'0 0.0
2018-Aug-10 04:31N 49°09' W 123°00'0 0.0
2018-Aug-10 04:11N 49°09' W 123°00'0 0.0
2018-Aug-10 04:00N 49°09' W 123°00'0 0.0
2018-Aug-10 03:22N 49°09' W 123°00'0 0.0
2018-Aug-10 03:00N 49°09' W 123°00'0 0.0
2018-Aug-10 02:29N 49°09' W 123°00'0 0.0
2018-Aug-09 20:29N 49°09' W 123°00'0 0.0
2018-Aug-09 20:00N 49°09' W 123°00'0 0.0
2018-Aug-09 19:20N 49°09' W 123°00'0 0.0
2018-Aug-09 19:00N 49°09' W 123°00'0 0.0
2018-Aug-09 18:30N 49°09' W 123°00'0 0.0
2018-Aug-09 17:59N 49°09' W 123°00'0 0.0
2018-Aug-09 15:01N 49°09' W 123°00'  

Dump ship's entire track history